Time;durP1;ratioP1;P1;durP2;ratioP2;P2;SDS_P1;SDS_P2;PMS_P1;PMS_P2;Temp;Humidity;BMP_temperature;BMP_pressure;BME280_temperature;BME280_humidity;BME280_pressure;Samples;Min_cycle;Max_cycle;Signal;HPM_P1;HPM_P2
2022/09/24 00:00:38;;;;;;;;;;;9.20;99.90;;;;;;5058507;28;19909;-94
2022/09/24 00:03:04;;;;;;;;;;;9.20;99.90;;;;;;5067509;28;19919;-93
2022/09/24 00:05:35;;;;;;;;;;;9.20;99.90;;;;;;5076829;28;20254;-93
2022/09/24 00:08:01;;;;;;;;;;;9.10;99.90;;;;;;5077160;28;19912;-95
2022/09/24 00:10:26;;;;;;;;;;;9.10;99.90;;;;;;5076973;28;19917;-92
2022/09/24 00:12:52;;;;;;;;;;;9.00;99.90;;;;;;5076991;28;19995;-93
2022/09/24 00:15:17;;;;;;;;;;;9.00;99.90;;;;;;5076841;28;19970;-94
2022/09/24 00:17:43;;;;;;;;;;;9.00;99.90;;;;;;5094460;28;19916;-91
2022/09/24 00:20:08;;;;;;;;;;;9.00;99.90;;;;;;5076790;28;19919;-92
2022/09/24 00:22:34;;;;;;;;;;;9.00;99.90;;;;;;5077567;28;20377;-93
2022/09/24 00:27:43;;;;;;;;;;;8.90;99.90;;;;;;5106522;28;19934;-93
2022/09/24 00:30:09;;;;;;;;;;;8.90;99.90;;;;;;5095645;28;19920;-92
2022/09/24 00:32:35;;;;;;;;;;;8.80;99.90;;;;;;5097242;28;19934;-92
2022/09/24 00:35:00;;;;;;;;;;;8.80;99.90;;;;;;5099324;28;19912;-89
2022/09/24 00:37:27;;;;;;;;;;;8.80;99.90;;;;;;5099362;28;19905;-92
2022/09/24 00:39:52;;;;;;;;;;;8.70;99.90;;;;;;5096939;28;19947;-92
2022/09/24 00:42:19;;;;;;;;;;;8.70;99.90;;;;;;5090138;28;19908;-93
2022/09/24 00:44:45;;;;;;;;;;;8.60;99.90;;;;;;5101362;28;19916;-92
2022/09/24 00:47:13;;;;;;;;;;;8.60;99.90;;;;;;5085497;28;20053;-93
2022/09/24 00:49:39;;;;;;;;;;;8.60;99.90;;;;;;5084854;28;19920;-94
2022/09/24 00:52:05;;;;;;;;;;;8.50;99.90;;;;;;5097345;28;19939;-93
2022/09/24 00:54:31;;;;;;;;;;;8.50;99.90;;;;;;5076575;28;20392;-92
2022/09/24 00:56:57;;;;;;;;;;;8.40;99.90;;;;;;5076569;28;19942;-93
2022/09/24 00:59:24;;;;;;;;;;;8.40;99.90;;;;;;5094230;28;19958;-93
2022/09/24 01:01:50;;;;;;;;;;;8.40;99.90;;;;;;5094565;28;19977;-92
2022/09/24 01:04:18;;;;;;;;;;;8.30;99.90;;;;;;5094907;28;19909;-93
2022/09/24 01:06:44;;;;;;;;;;;8.30;99.90;;;;;;5077502;28;19940;-92
2022/09/24 01:09:10;;;;;;;;;;;8.30;99.90;;;;;;5077032;28;19912;-92
2022/09/24 01:11:42;;;;;;;;;;;8.20;99.90;;;;;;5079342;28;19920;-93
2022/09/24 01:14:20;;;;;;;;;;;8.20;99.90;;;;;;5080706;28;19908;-93
2022/09/24 01:16:52;;;;;;;;;;;8.10;99.90;;;;;;5080543;28;19912;-92
2022/09/24 01:19:17;;;;;;;;;;;8.10;99.90;;;;;;5098611;28;20422;-93
2022/09/24 01:21:49;;;;;;;;;;;8.10;99.90;;;;;;5082377;28;19913;-93
2022/09/24 01:24:15;;;;;;;;;;;8.00;99.90;;;;;;5090465;28;19979;-93
2022/09/24 01:26:56;;;;;;;;;;;8.00;99.90;;;;;;5083486;28;19966;-92
2022/09/24 01:29:31;;;;;;;;;;;8.00;99.90;;;;;;5080723;28;20281;-94
2022/09/24 01:32:01;;;;;;;;;;;8.00;99.90;;;;;;5082557;28;19920;-93
2022/09/24 01:34:29;;;;;;;;;;;7.90;99.90;;;;;;5093893;28;20010;-93
2022/09/24 01:36:56;;;;;;;;;;;7.90;99.90;;;;;;5109090;28;19916;-94
2022/09/24 01:39:22;;;;;;;;;;;7.90;99.90;;;;;;5081198;28;19987;-91
2022/09/24 01:41:48;;;;;;;;;;;7.90;99.90;;;;;;5080636;28;19944;-93
2022/09/24 01:44:17;;;;;;;;;;;7.80;99.90;;;;;;5081783;28;19908;-93
2022/09/24 01:46:42;;;;;;;;;;;7.80;99.90;;;;;;5083634;28;19922;-93
2022/09/24 01:49:08;;;;;;;;;;;7.80;99.90;;;;;;5082878;28;20433;-95
2022/09/24 01:51:37;;;;;;;;;;;7.80;99.90;;;;;;5079723;28;20384;-94
2022/09/24 01:54:05;;;;;;;;;;;7.80;99.90;;;;;;5079612;28;19912;-90
2022/09/24 01:56:33;;;;;;;;;;;7.70;99.90;;;;;;5080036;28;19915;-93
2022/09/24 01:59:12;;;;;;;;;;;7.70;99.90;;;;;;5080720;28;20116;-94
2022/09/24 02:01:43;;;;;;;;;;;7.70;99.90;;;;;;5080703;28;19912;-94
2022/09/24 02:04:14;;;;;;;;;;;7.60;99.90;;;;;;5098098;28;19914;-92
2022/09/24 02:06:46;;;;;;;;;;;7.50;99.90;;;;;;5081667;28;19912;-94
2022/09/24 02:09:28;;;;;;;;;;;7.40;99.90;;;;;;5080264;28;19934;-93
2022/09/24 02:11:55;;;;;;;;;;;7.40;99.90;;;;;;5093591;28;19927;-90
2022/09/24 02:14:21;;;;;;;;;;;7.30;99.90;;;;;;5080611;28;19912;-94
2022/09/24 02:16:47;;;;;;;;;;;7.30;99.90;;;;;;5080298;28;20272;-95
2022/09/24 02:19:16;;;;;;;;;;;7.30;99.90;;;;;;5080116;28;19987;-93
2022/09/24 02:21:42;;;;;;;;;;;7.30;99.90;;;;;;5080378;28;19908;-93
2022/09/24 02:24:33;;;;;;;;;;;7.20;99.90;;;;;;5078995;28;19955;-94
2022/09/24 02:26:59;;;;;;;;;;;7.20;99.90;;;;;;5079874;28;19915;-91
2022/09/24 02:29:24;;;;;;;;;;;7.20;99.90;;;;;;5079047;28;20366;-94
2022/09/24 02:31:52;;;;;;;;;;;7.20;99.90;;;;;;5079237;28;19927;-93
2022/09/24 02:34:20;;;;;;;;;;;7.20;99.90;;;;;;5079493;28;19935;-94
2022/09/24 02:36:49;;;;;;;;;;;7.20;99.90;;;;;;5098733;28;20006;-93
2022/09/24 02:39:16;;;;;;;;;;;7.20;99.90;;;;;;5079575;28;19908;-94
2022/09/24 02:41:45;;;;;;;;;;;7.10;99.90;;;;;;5085378;28;19912;-93
2022/09/24 02:44:11;;;;;;;;;;;7.20;99.90;;;;;;5083276;28;19909;-92
2022/09/24 02:46:40;;;;;;;;;;;7.10;99.90;;;;;;5081187;28;20361;-94
2022/09/24 02:49:07;;;;;;;;;;;7.10;99.90;;;;;;5085374;28;20266;-93
2022/09/24 02:51:32;;;;;;;;;;;7.10;99.90;;;;;;5091084;28;19969;-94
2022/09/24 02:54:00;;;;;;;;;;;7.10;99.90;;;;;;5090117;28;19915;-93
2022/09/24 02:56:25;;;;;;;;;;;7.00;99.90;;;;;;5086445;28;19916;-94
2022/09/24 02:58:52;;;;;;;;;;;7.00;99.90;;;;;;5085450;28;19934;-94
2022/09/24 03:01:18;;;;;;;;;;;7.00;99.90;;;;;;5100343;28;19908;-94
2022/09/24 03:03:44;;;;;;;;;;;7.00;99.90;;;;;;5079235;28;20315;-94
2022/09/24 03:06:12;;;;;;;;;;;7.00;99.90;;;;;;5078881;28;19975;-94
2022/09/24 03:08:38;;;;;;;;;;;7.00;99.90;;;;;;5078793;28;19930;-94
2022/09/24 03:11:03;;;;;;;;;;;7.00;99.90;;;;;;5078582;28;20361;-93
2022/09/24 03:13:29;;;;;;;;;;;7.00;99.90;;;;;;5078934;28;20379;-93
2022/09/24 03:15:54;;;;;;;;;;;7.00;99.90;;;;;;5079637;28;19912;-92
2022/09/24 03:18:20;;;;;;;;;;;7.00;99.90;;;;;;5078571;28;20376;-93
2022/09/24 03:20:59;;;;;;;;;;;6.90;99.90;;;;;;5078531;28;19912;-94
2022/09/24 03:23:24;;;;;;;;;;;6.90;99.90;;;;;;5096832;28;19919;-94
2022/09/24 03:25:50;;;;;;;;;;;6.90;99.90;;;;;;5096865;28;19908;-93
2022/09/24 03:28:16;;;;;;;;;;;6.80;99.90;;;;;;5078484;28;20376;-94
2022/09/24 03:31:00;;;;;;;;;;;6.70;99.90;;;;;;5077937;28;20343;-94
2022/09/24 03:33:34;;;;;;;;;;;6.70;99.90;;;;;;5080574;28;20435;-93
2022/09/24 03:36:02;;;;;;;;;;;6.70;99.90;;;;;;5087645;28;20002;-92
2022/09/24 03:38:28;;;;;;;;;;;6.60;99.90;;;;;;5077606;28;19912;-93
2022/09/24 03:40:55;;;;;;;;;;;6.60;99.90;;;;;;5078070;28;19938;-93
2022/09/24 03:43:20;;;;;;;;;;;6.60;99.90;;;;;;5079132;28;20390;-94
2022/09/24 03:45:46;;;;;;;;;;;6.60;99.90;;;;;;5078005;28;19908;-95
2022/09/24 03:48:11;;;;;;;;;;;6.60;99.90;;;;;;5077718;28;19912;-93
2022/09/24 03:50:37;;;;;;;;;;;6.60;99.90;;;;;;5077454;28;19916;-95
2022/09/24 03:53:03;;;;;;;;;;;6.60;99.90;;;;;;5077828;28;19908;-93
2022/09/24 03:55:29;;;;;;;;;;;6.50;99.90;;;;;;5089552;28;19980;-91
2022/09/24 03:57:54;;;;;;;;;;;6.60;99.90;;;;;;5079773;28;19912;-93
2022/09/24 04:00:20;;;;;;;;;;;6.60;99.90;;;;;;5076812;28;19912;-93
2022/09/24 04:02:46;;;;;;;;;;;6.40;99.90;;;;;;5077643;28;19913;-94
2022/09/24 04:05:12;;;;;;;;;;;6.40;99.90;;;;;;5077434;28;19915;-93
2022/09/24 04:07:37;;;;;;;;;;;6.40;99.90;;;;;;5077459;28;19908;-92
2022/09/24 04:10:03;;;;;;;;;;;6.30;99.90;;;;;;5077375;28;19920;-92
2022/09/24 04:12:30;;;;;;;;;;;6.30;99.90;;;;;;5078931;28;19950;-92
2022/09/24 04:14:55;;;;;;;;;;;6.30;99.90;;;;;;5086016;28;19916;-92
2022/09/24 04:17:21;;;;;;;;;;;6.30;99.90;;;;;;5084126;28;19998;-92
2022/09/24 04:19:46;;;;;;;;;;;6.30;99.90;;;;;;5076660;28;19934;-94
2022/09/24 04:22:12;;;;;;;;;;;6.30;99.90;;;;;;5076831;28;19914;-91
2022/09/24 04:24:38;;;;;;;;;;;6.30;99.90;;;;;;5076169;28;19912;-91
2022/09/24 04:27:03;;;;;;;;;;;6.30;99.90;;;;;;5076258;28;19908;-93
2022/09/24 04:29:29;;;;;;;;;;;6.30;99.90;;;;;;5076155;28;19943;-93
2022/09/24 04:31:55;;;;;;;;;;;6.30;99.90;;;;;;5076516;28;20405;-93
2022/09/24 04:34:21;;;;;;;;;;;6.30;99.90;;;;;;5076498;28;19912;-93
2022/09/24 04:36:46;;;;;;;;;;;6.30;99.90;;;;;;5076774;28;19957;-92
2022/09/24 04:39:12;;;;;;;;;;;6.30;99.90;;;;;;5076347;28;19916;-93
2022/09/24 04:41:38;;;;;;;;;;;6.20;99.90;;;;;;5076698;28;19970;-93
2022/09/24 04:44:04;;;;;;;;;;;6.20;99.90;;;;;;5093969;28;19978;-95
2022/09/24 04:46:33;;;;;;;;;;;6.20;99.90;;;;;;5066905;28;19916;-94
2022/09/24 04:48:58;;;;;;;;;;;6.20;99.90;;;;;;5060647;28;19908;-94
2022/09/24 04:51:24;;;;;;;;;;;6.20;99.90;;;;;;5060080;28;20277;-94
2022/09/24 04:53:49;;;;;;;;;;;6.20;99.90;;;;;;5061031;28;20376;-94
2022/09/24 04:56:15;;;;;;;;;;;6.20;99.90;;;;;;5061516;28;19919;-91
2022/09/24 04:58:40;;;;;;;;;;;6.20;99.90;;;;;;5065202;28;19919;-94
2022/09/24 05:01:06;;;;;;;;;;;6.20;99.90;;;;;;5066762;28;19913;-93
2022/09/24 05:03:32;;;;;;;;;;;6.20;99.90;;;;;;5068399;28;19912;-93
2022/09/24 05:05:57;;;;;;;;;;;6.20;99.90;;;;;;5064932;28;19908;-94
2022/09/24 05:08:23;;;;;;;;;;;6.20;99.90;;;;;;5060267;28;20369;-94
2022/09/24 05:10:48;;;;;;;;;;;6.20;99.90;;;;;;5060260;28;20015;-94
2022/09/24 05:13:14;;;;;;;;;;;6.20;99.90;;;;;;5059723;28;20015;-93
2022/09/24 05:15:39;;;;;;;;;;;6.20;99.90;;;;;;5060214;28;19939;-94
2022/09/24 05:18:05;;;;;;;;;;;6.20;99.90;;;;;;5059897;28;19917;-92
2022/09/24 05:20:31;;;;;;;;;;;6.20;99.90;;;;;;5043269;28;19920;-95
2022/09/24 05:22:57;;;;;;;;;;;6.30;99.90;;;;;;5059680;28;20275;-91
2022/09/24 05:25:22;;;;;;;;;;;6.30;99.90;;;;;;5060772;28;20007;-92
2022/09/24 05:27:52;;;;;;;;;;;6.30;99.90;;;;;;5060184;28;19913;-93
2022/09/24 05:30:19;;;;;;;;;;;6.40;99.90;;;;;;5060187;28;20387;-93
2022/09/24 05:32:48;;;;;;;;;;;6.40;99.90;;;;;;5060457;28;19924;-94
2022/09/24 05:35:13;;;;;;;;;;;6.40;99.90;;;;;;5060540;28;19973;-95
2022/09/24 05:37:39;;;;;;;;;;;6.40;99.90;;;;;;5060337;28;19913;-92
2022/09/24 05:42:50;;;;;;;;;;;6.50;99.90;;;;;;5077816;28;19963;-94
2022/09/24 05:45:16;;;;;;;;;;;6.50;99.90;;;;;;5059784;28;19916;-93
2022/09/24 05:47:43;;;;;;;;;;;6.50;99.90;;;;;;5059723;28;20377;-93
2022/09/24 05:50:09;;;;;;;;;;;6.40;99.90;;;;;;5060192;28;19924;-92
2022/09/24 05:52:34;;;;;;;;;;;6.40;99.90;;;;;;5060925;28;19909;-93
2022/09/24 05:55:00;;;;;;;;;;;6.40;99.90;;;;;;5079185;28;19916;-93
2022/09/24 05:57:25;;;;;;;;;;;6.40;99.90;;;;;;5087440;28;19899;-89
2022/09/24 05:59:53;;;;;;;;;;;6.40;99.90;;;;;;5082493;28;19900;-87
2022/09/24 06:02:18;;;;;;;;;;;6.40;99.90;;;;;;5082418;28;19927;-87
2022/09/24 06:04:44;;;;;;;;;;;6.50;99.90;;;;;;5082748;28;19896;-86
2022/09/24 06:07:10;;;;;;;;;;;6.50;99.90;;;;;;5082378;28;19958;-87
2022/09/24 06:09:35;;;;;;;;;;;6.50;99.90;;;;;;5099731;28;19900;-88
2022/09/24 06:12:01;;;;;;;;;;;6.50;99.90;;;;;;5097313;28;19966;-86
2022/09/24 06:14:27;;;;;;;;;;;6.50;99.90;;;;;;5067496;28;19908;-91
2022/09/24 06:16:53;;;;;;;;;;;6.50;99.90;;;;;;5066185;28;19927;-94
2022/09/24 06:19:18;;;;;;;;;;;6.50;99.90;;;;;;5086369;28;19954;-93
2022/09/24 06:21:44;;;;;;;;;;;6.60;99.90;;;;;;5068149;28;19908;-92
2022/09/24 06:24:10;;;;;;;;;;;6.60;99.90;;;;;;5085595;28;20420;-92
2022/09/24 06:26:36;;;;;;;;;;;6.60;99.90;;;;;;5067232;28;19990;-93
2022/09/24 06:29:02;;;;;;;;;;;6.70;99.90;;;;;;5085025;28;19912;-92
2022/09/24 06:31:27;;;;;;;;;;;6.70;99.90;;;;;;5065556;28;19927;-95
2022/09/24 06:33:53;;;;;;;;;;;6.70;99.90;;;;;;5087244;28;19912;-93
2022/09/24 06:36:19;;;;;;;;;;;6.70;99.90;;;;;;5085832;28;19919;-94
2022/09/24 06:38:44;;;;;;;;;;;6.70;99.90;;;;;;5074598;28;20377;-93
2022/09/24 06:41:10;;;;;;;;;;;6.70;99.90;;;;;;5073102;28;20349;-92
2022/09/24 06:43:36;;;;;;;;;;;6.70;99.90;;;;;;5068249;28;20364;-92
2022/09/24 06:46:02;;;;;;;;;;;6.70;99.90;;;;;;5086330;28;19931;-91
2022/09/24 06:48:29;;;;;;;;;;;6.70;99.90;;;;;;5060341;28;20442;-92
2022/09/24 06:50:55;;;;;;;;;;;6.70;99.90;;;;;;5061218;28;20014;-92
2022/09/24 06:53:21;;;;;;;;;;;6.80;99.90;;;;;;5073657;28;19931;-91
2022/09/24 06:55:47;;;;;;;;;;;6.80;99.90;;;;;;5073097;28;19935;-93
2022/09/24 06:58:18;;;;;;;;;;;6.80;99.90;;;;;;5079816;28;19972;-93
2022/09/24 07:00:49;;;;;;;;;;;6.80;99.90;;;;;;5075469;28;19936;-92
2022/09/24 07:03:15;;;;;;;;;;;6.90;99.90;;;;;;5077456;28;20345;-91
2022/09/24 07:05:40;;;;;;;;;;;6.90;99.90;;;;;;5073342;28;19928;-94
2022/09/24 07:08:06;;;;;;;;;;;6.90;99.90;;;;;;5072851;28;19912;-91
2022/09/24 07:10:32;;;;;;;;;;;6.90;99.90;;;;;;5069599;28;20262;-92
2022/09/24 07:12:57;;;;;;;;;;;6.90;99.90;;;;;;5076532;28;19919;-92
2022/09/24 07:15:23;;;;;;;;;;;6.90;99.90;;;;;;5088177;28;19911;-92
2022/09/24 07:17:53;;;;;;;;;;;6.90;99.90;;;;;;5070909;28;19908;-93
2022/09/24 07:20:18;;;;;;;;;;;7.00;99.90;;;;;;5078361;28;20570;-93
2022/09/24 07:22:44;;;;;;;;;;;7.00;99.90;;;;;;5065638;28;19967;-93
2022/09/24 07:25:10;;;;;;;;;;;7.00;99.90;;;;;;5068318;28;19923;-93
2022/09/24 07:27:36;;;;;;;;;;;7.10;99.90;;;;;;5062223;28;19920;-93
2022/09/24 07:30:04;;;;;;;;;;;7.10;99.90;;;;;;5058368;28;19916;-95
2022/09/24 07:32:29;;;;;;;;;;;7.20;99.90;;;;;;5062963;28;20376;-94
2022/09/24 07:34:55;;;;;;;;;;;7.20;99.90;;;;;;5067406;28;20007;-91
2022/09/24 07:37:20;;;;;;;;;;;7.40;99.90;;;;;;5068160;28;19912;-94
2022/09/24 07:39:46;;;;;;;;;;;7.50;99.90;;;;;;5070418;28;19943;-91
2022/09/24 07:42:11;;;;;;;;;;;7.70;99.90;;;;;;5085409;28;19963;-94
2022/09/24 07:44:37;;;;;;;;;;;7.90;99.90;;;;;;5069656;28;19938;-93
2022/09/24 07:47:03;;;;;;;;;;;8.00;99.90;;;;;;5089790;28;19926;-94
2022/09/24 07:49:31;;;;;;;;;;;8.10;99.90;;;;;;5062887;28;19916;-95
2022/09/24 07:51:56;;;;;;;;;;;8.20;99.90;;;;;;5091324;28;19912;-94
2022/09/24 07:54:22;;;;;;;;;;;8.40;99.90;;;;;;5079156;28;19999;-93
2022/09/24 07:56:49;;;;;;;;;;;8.50;99.90;;;;;;5082916;28;20424;-91
2022/09/24 07:59:16;;;;;;;;;;;8.60;99.90;;;;;;5078143;28;19943;-90
2022/09/24 08:01:47;;;;;;;;;;;8.80;99.90;;;;;;5078600;28;19998;-93
2022/09/24 08:04:17;;;;;;;;;;;8.90;99.90;;;;;;5077953;28;20064;-93
2022/09/24 08:06:45;;;;;;;;;;;9.20;99.90;;;;;;5077979;28;20004;-92
2022/09/24 08:09:10;;;;;;;;;;;9.40;99.90;;;;;;5077141;28;19908;-91
2022/09/24 08:11:36;;;;;;;;;;;9.60;99.90;;;;;;5077989;28;20388;-93
2022/09/24 08:14:03;;;;;;;;;;;9.80;99.90;;;;;;5077987;28;20368;-92
2022/09/24 08:16:29;;;;;;;;;;;10.00;99.90;;;;;;5076977;28;19908;-89
2022/09/24 08:18:54;;;;;;;;;;;10.20;99.90;;;;;;5077647;28;20002;-92
2022/09/24 08:21:20;;;;;;;;;;;10.40;99.90;;;;;;5078191;28;19919;-90
2022/09/24 08:23:47;;;;;;;;;;;10.60;99.90;;;;;;5077990;28;19908;-92
2022/09/24 08:26:19;;;;;;;;;;;10.80;99.90;;;;;;5077452;28;20014;-90
2022/09/24 08:28:47;;;;;;;;;;;11.00;99.90;;;;;;5076246;28;19908;-91
2022/09/24 08:31:17;;;;;;;;;;;11.10;99.90;;;;;;5077018;28;19988;-92
2022/09/24 08:33:49;;;;;;;;;;;11.30;99.90;;;;;;5077722;28;22529;-93
2022/09/24 08:36:15;;;;;;;;;;;11.40;99.90;;;;;;5077544;28;20293;-93
2022/09/24 08:38:42;;;;;;;;;;;11.60;99.90;;;;;;5060456;28;19919;-94
2022/09/24 08:41:11;;;;;;;;;;;11.70;99.90;;;;;;5077529;28;19919;-92
2022/09/24 08:43:55;;;;;;;;;;;11.80;99.90;;;;;;5077376;28;19955;-92
2022/09/24 08:49:09;;;;;;;;;;;12.00;99.90;;;;;;5095229;28;19915;-91
2022/09/24 08:51:44;;;;;;;;;;;12.10;99.90;;;;;;5078472;28;19920;-93
2022/09/24 08:54:12;;;;;;;;;;;12.10;99.90;;;;;;5076048;28;20392;-91
2022/09/24 08:56:46;;;;;;;;;;;12.20;99.90;;;;;;5077235;28;19974;-91
2022/09/24 08:59:12;;;;;;;;;;;12.30;99.90;;;;;;5077126;28;19909;-91
2022/09/24 09:01:50;;;;;;;;;;;12.30;99.90;;;;;;5077252;28;19908;-90
2022/09/24 09:04:32;;;;;;;;;;;12.40;99.90;;;;;;5077163;28;20042;-90
2022/09/24 09:07:18;;;;;;;;;;;12.50;99.90;;;;;;5078039;28;19912;-91
2022/09/24 09:09:49;;;;;;;;;;;12.60;99.90;;;;;;5078978;28;19930;-90
2022/09/24 09:12:35;;;;;;;;;;;12.70;99.90;;;;;;5077002;28;19915;-92
2022/09/24 09:15:27;;;;;;;;;;;12.80;99.90;;;;;;5077171;28;19908;-92
2022/09/24 09:18:11;;;;;;;;;;;12.80;99.90;;;;;;5076248;28;19915;-92
2022/09/24 09:20:40;;;;;;;;;;;12.90;99.90;;;;;;5077022;28;19908;-92
2022/09/24 09:23:12;;;;;;;;;;;12.90;99.90;;;;;;5076994;28;19915;-91
2022/09/24 09:25:41;;;;;;;;;;;12.90;99.90;;;;;;5076625;28;19912;-92
2022/09/24 09:28:16;;;;;;;;;;;12.90;99.90;;;;;;5076268;28;20280;-93
2022/09/24 09:30:48;;;;;;;;;;;12.80;99.90;;;;;;5076407;28;19916;-92
2022/09/24 09:33:13;;;;;;;;;;;12.80;99.90;;;;;;5077641;28;19920;-92
2022/09/24 09:36:04;;;;;;;;;;;12.90;99.90;;;;;;5098377;28;20042;-93
2022/09/24 09:38:46;;;;;;;;;;;12.90;99.90;;;;;;5098636;28;19943;-92
2022/09/24 09:41:19;;;;;;;;;;;13.00;99.90;;;;;;5080567;28;19963;-92
2022/09/24 09:43:45;;;;;;;;;;;13.10;99.90;;;;;;5098395;28;19912;-92
2022/09/24 09:46:17;;;;;;;;;;;13.20;99.90;;;;;;5080744;28;19919;-91
2022/09/24 09:48:43;;;;;;;;;;;13.10;99.90;;;;;;5081929;28;19908;-93
2022/09/24 09:51:12;;;;;;;;;;;13.10;99.90;;;;;;5080569;28;20387;-92
2022/09/24 09:53:38;;;;;;;;;;;13.00;99.90;;;;;;5082652;28;19908;-92
2022/09/24 09:56:06;;;;;;;;;;;13.00;99.90;;;;;;5099167;28;19912;-91
2022/09/24 09:58:36;;;;;;;;;;;12.90;99.90;;;;;;5080698;28;19915;-92
2022/09/24 10:01:08;;;;;;;;;;;12.90;99.90;;;;;;5080537;28;19912;-93
2022/09/24 10:03:43;;;;;;;;;;;13.00;99.90;;;;;;5080605;28;19912;-92
2022/09/24 10:06:10;;;;;;;;;;;13.00;99.90;;;;;;5097953;28;19908;-92
2022/09/24 10:08:35;;;;;;;;;;;13.10;99.90;;;;;;5098272;28;19915;-92
2022/09/24 10:11:02;;;;;;;;;;;13.10;99.90;;;;;;5079679;28;19916;-94
2022/09/24 10:13:30;;;;;;;;;;;13.20;99.90;;;;;;5097436;28;20371;-92
2022/09/24 10:15:56;;;;;;;;;;;13.20;99.90;;;;;;5079652;28;20002;-90
2022/09/24 10:18:27;;;;;;;;;;;13.20;99.90;;;;;;5079762;28;19912;-92
2022/09/24 10:20:54;;;;;;;;;;;13.20;99.90;;;;;;5079369;28;19908;-91
2022/09/24 10:23:21;;;;;;;;;;;13.20;99.90;;;;;;5097487;28;19942;-91
2022/09/24 10:25:57;;;;;;;;;;;13.20;99.90;;;;;;5079015;28;20446;-91
2022/09/24 10:31:31;;;;;;;;;;;13.30;99.90;;;;;;5097899;28;19935;-92
2022/09/24 10:33:58;;;;;;;;;;;13.40;99.90;;;;;;5078307;28;20325;-91
2022/09/24 10:36:26;;;;;;;;;;;13.40;99.90;;;;;;5098149;28;19941;-92
2022/09/24 10:39:11;;;;;;;;;;;13.50;99.90;;;;;;5079902;28;19912;-91
2022/09/24 10:41:53;;;;;;;;;;;13.50;99.90;;;;;;5082218;28;19908;-91
2022/09/24 10:44:22;;;;;;;;;;;13.60;99.90;;;;;;5083667;28;19908;-91
2022/09/24 10:50:17;;;;;;;;;;;13.90;99.90;;;;;;5110191;28;19930;-90
2022/09/24 10:52:46;;;;;;;;;;;14.00;99.90;;;;;;5091839;28;19916;-91
2022/09/24 10:55:23;;;;;;;;;;;14.10;99.90;;;;;;5088741;28;19912;-92
2022/09/24 10:58:13;;;;;;;;;;;14.20;99.90;;;;;;5087180;28;19909;-91
2022/09/24 11:01:06;;;;;;;;;;;14.30;99.90;;;;;;5083413;28;19908;-91
2022/09/24 11:03:51;;;;;;;;;;;14.50;99.90;;;;;;5082162;28;19935;-90
2022/09/24 11:06:37;;;;;;;;;;;14.60;99.90;;;;;;5079402;28;19958;-91
2022/09/24 11:09:12;;;;;;;;;;;14.70;99.90;;;;;;5064821;28;19908;-91
2022/09/24 11:11:41;;;;;;;;;;;14.80;99.90;;;;;;5096064;28;20420;-91
2022/09/24 11:14:15;;;;;;;;;;;15.00;99.90;;;;;;5079028;28;19908;-92
2022/09/24 11:17:06;;;;;;;;;;;15.30;99.90;;;;;;5079277;28;19909;-93
2022/09/24 11:20:00;;;;;;;;;;;15.60;99.90;;;;;;5079363;28;19908;-92
2022/09/24 11:22:54;;;;;;;;;;;15.90;99.90;;;;;;5078885;28;19912;-93
2022/09/24 11:25:27;;;;;;;;;;;16.20;99.90;;;;;;5080417;28;19974;-91
2022/09/24 11:28:10;;;;;;;;;;;16.40;99.90;;;;;;5078944;28;19912;-94
2022/09/24 11:30:54;;;;;;;;;;;16.50;99.90;;;;;;5077975;28;19913;-93
2022/09/24 11:33:49;;;;;;;;;;;16.60;99.90;;;;;;5074923;28;19924;-94
2022/09/24 11:36:23;;;;;;;;;;;16.60;99.90;;;;;;5038097;28;19909;-92
2022/09/24 11:38:58;;;;;;;;;;;16.70;99.70;;;;;;5038243;28;19913;-93
2022/09/24 11:41:42;;;;;;;;;;;16.70;99.30;;;;;;5038620;28;20366;-94
2022/09/24 11:44:21;;;;;;;;;;;16.80;98.70;;;;;;5039989;28;19912;-94
2022/09/24 11:46:59;;;;;;;;;;;17.00;97.50;;;;;;5038667;28;19916;-93
2022/09/24 11:50:01;;;;;;;;;;;17.20;96.20;;;;;;5037894;28;20351;-93
2022/09/24 11:52:36;;;;;;;;;;;17.60;95.90;;;;;;4974905;28;19989;-93
2022/09/24 11:55:10;;;;;;;;;;;18.10;94.90;;;;;;4958679;28;19910;-93
2022/09/24 11:57:39;;;;;;;;;;;18.30;93.90;;;;;;4974752;28;19939;-91
2022/09/24 12:00:19;;;;;;;;;;;18.40;93.30;;;;;;4974716;28;19922;-93
2022/09/24 12:02:44;;;;;;;;;;;18.40;92.90;;;;;;4958717;28;20291;-92
2022/09/24 12:05:28;;;;;;;;;;;18.50;92.00;;;;;;4975177;28;19914;-93
2022/09/24 12:08:09;;;;;;;;;;;18.60;91.30;;;;;;4974798;28;19910;-94
2022/09/24 12:10:44;;;;;;;;;;;18.80;90.80;;;;;;4958292;28;19918;-95
2022/09/24 12:13:23;;;;;;;;;;;18.90;90.10;;;;;;4975045;28;19918;-94
2022/09/24 12:15:51;;;;;;;;;;;18.70;88.60;;;;;;4974729;28;19921;-93
2022/09/24 12:18:19;;;;;;;;;;;18.40;87.00;;;;;;4974739;28;19956;-93
2022/09/24 12:21:01;;;;;;;;;;;18.10;87.50;;;;;;4974195;28;19910;-92
2022/09/24 12:23:29;;;;;;;;;;;17.80;87.30;;;;;;4975112;28;19910;-92
2022/09/24 12:25:57;;;;;;;;;;;17.60;88.10;;;;;;4974609;28;19920;-94
2022/09/24 12:34:11;;;;;;;;;;;18.50;87.40;;;;;;5056520;28;19939;-95
2022/09/24 12:37:12;;;;;;;;;;;19.20;84.30;;;;;;5077768;28;20353;-95
2022/09/24 12:39:43;;;;;;;;;;;19.90;82.10;;;;;;4993690;28;20053;-91
2022/09/24 12:42:10;;;;;;;;;;;20.50;80.10;;;;;;4977262;28;19917;-95
2022/09/24 12:44:40;;;;;;;;;;;20.60;76.40;;;;;;4993682;28;20379;-94
2022/09/24 12:47:13;;;;;;;;;;;20.40;75.20;;;;;;4977220;28;19914;-94
2022/09/24 12:49:39;;;;;;;;;;;20.10;75.80;;;;;;4977305;28;19910;-94
2022/09/24 12:52:20;;;;;;;;;;;19.70;76.20;;;;;;4976894;28;19976;-94
2022/09/24 12:54:52;;;;;;;;;;;19.20;76.90;;;;;;4976908;28;19910;-94
2022/09/24 12:57:19;;;;;;;;;;;18.80;77.60;;;;;;4977448;28;19910;-93
2022/09/24 12:59:55;;;;;;;;;;;18.40;78.60;;;;;;4976896;28;19921;-92
2022/09/24 13:02:22;;;;;;;;;;;18.10;79.20;;;;;;4977132;28;19917;-94
2022/09/24 13:04:59;;;;;;;;;;;17.80;80.10;;;;;;4993201;28;19918;-95
2022/09/24 13:07:30;;;;;;;;;;;17.60;80.90;;;;;;4994807;28;19924;-93
2022/09/24 13:09:56;;;;;;;;;;;17.40;81.70;;;;;;4996954;28;19921;-95
2022/09/24 13:12:31;;;;;;;;;;;17.20;82.00;;;;;;4980368;28;20240;-93
2022/09/24 13:15:03;;;;;;;;;;;17.00;82.00;;;;;;5080776;28;20305;-94
2022/09/24 13:17:32;;;;;;;;;;;16.80;82.10;;;;;;5082740;28;19908;-95
2022/09/24 13:19:59;;;;;;;;;;;16.60;82.30;;;;;;5080987;28;19908;-93
2022/09/24 13:22:29;;;;;;;;;;;16.50;82.90;;;;;;5098371;28;19948;-94
2022/09/24 13:25:04;;;;;;;;;;;16.40;83.20;;;;;;5080874;28;20457;-94
2022/09/24 13:27:30;;;;;;;;;;;16.40;83.40;;;;;;5081582;28;19936;-93
2022/09/24 13:30:08;;;;;;;;;;;16.40;83.40;;;;;;5080696;28;19916;-93
2022/09/24 13:32:37;;;;;;;;;;;16.40;83.20;;;;;;5080545;28;19928;-93
2022/09/24 13:35:05;;;;;;;;;;;16.70;83.30;;;;;;5063769;28;19964;-95
2022/09/24 13:37:38;;;;;;;;;;;17.10;83.00;;;;;;5080122;28;20046;-94
2022/09/24 13:40:23;;;;;;;;;;;17.50;81.80;;;;;;5080197;28;19944;-94
2022/09/24 13:42:53;;;;;;;;;;;17.90;80.60;;;;;;5080138;28;19959;-93
2022/09/24 13:45:21;;;;;;;;;;;18.50;79.20;;;;;;5080581;28;19913;-94
2022/09/24 13:47:50;;;;;;;;;;;19.10;76.80;;;;;;5080390;28;19908;-93
2022/09/24 13:53:12;;;;;;;;;;;19.80;72.90;;;;;;5471048;22;19951;-95
2022/09/24 13:55:41;;;;;;;;;;;19.90;71.80;;;;;;5056650;28;19913;-93
2022/09/24 13:58:31;;;;;;;;;;;19.80;71.20;;;;;;5056387;28;19909;-96
2022/09/24 14:01:10;;;;;;;;;;;19.70;70.90;;;;;;5046092;28;19915;-94
2022/09/24 14:03:36;;;;;;;;;;;19.40;70.70;;;;;;5057518;28;19913;-93
2022/09/24 14:06:09;;;;;;;;;;;19.10;71.10;;;;;;5055984;28;19996;-94
2022/09/24 14:08:35;;;;;;;;;;;18.90;71.60;;;;;;5056239;28;19908;-93
2022/09/24 14:11:12;;;;;;;;;;;18.70;72.00;;;;;;5055874;28;20031;-94
2022/09/24 14:13:43;;;;;;;;;;;18.50;72.20;;;;;;5056226;28;19954;-93
2022/09/24 14:16:11;;;;;;;;;;;18.30;72.40;;;;;;5064865;28;19909;-94
2022/09/24 14:18:38;;;;;;;;;;;18.20;72.60;;;;;;5075356;28;19909;-91
2022/09/24 14:21:10;;;;;;;;;;;18.00;72.70;;;;;;5075852;28;20269;-92
2022/09/24 14:23:46;;;;;;;;;;;17.90;73.10;;;;;;5077087;28;19916;-92
2022/09/24 14:26:23;;;;;;;;;;;17.70;73.50;;;;;;5075853;28;19908;-92
2022/09/24 14:28:49;;;;;;;;;;;17.60;73.80;;;;;;5076718;28;19934;-92
2022/09/24 14:31:14;;;;;;;;;;;17.30;74.20;;;;;;5077182;28;19959;-93
2022/09/24 14:33:40;;;;;;;;;;;17.20;74.90;;;;;;5076331;28;19919;-92
2022/09/24 14:36:09;;;;;;;;;;;17.10;75.40;;;;;;5079171;28;19916;-93
2022/09/24 14:38:42;;;;;;;;;;;17.00;75.60;;;;;;5077015;28;19912;-92
2022/09/24 14:41:15;;;;;;;;;;;17.00;75.60;;;;;;5077599;28;19915;-93
2022/09/24 14:43:47;;;;;;;;;;;16.90;75.60;;;;;;5078397;28;19940;-92
2022/09/24 14:46:12;;;;;;;;;;;16.80;75.90;;;;;;5077481;28;19948;-95
2022/09/24 14:48:39;;;;;;;;;;;16.80;75.90;;;;;;5085706;28;19909;-91
2022/09/24 14:51:22;;;;;;;;;;;16.80;75.70;;;;;;5087260;28;19936;-93
2022/09/24 14:53:55;;;;;;;;;;;16.80;75.50;;;;;;5085810;28;19936;-93
2022/09/24 14:56:29;;;;;;;;;;;16.80;75.50;;;;;;5082938;28;19958;-94
2022/09/24 14:58:54;;;;;;;;;;;16.70;75.40;;;;;;5082756;28;19916;-94
2022/09/24 15:01:22;;;;;;;;;;;16.70;75.40;;;;;;5080319;28;19912;-93